sensor_id;sensor_type;location;lat;lon;timestamp;pressure;altitude;pressure_sealevel;temperature;humidity
8051;BME280;4068;42.158;24.732;2023-01-30T00:01:00;100056.19;;;3.58;95.36
8051;BME280;4068;42.158;24.732;2023-01-30T00:03:27;100031.59;;;3.40;95.32
8051;BME280;4068;42.158;24.732;2023-01-30T00:05:53;100049.94;;;3.61;94.51
8051;BME280;4068;42.158;24.732;2023-01-30T00:08:18;100055.72;;;3.69;93.56
8051;BME280;4068;42.158;24.732;2023-01-30T00:10:45;100052.22;;;3.69;93.09
8051;BME280;4068;42.158;24.732;2023-01-30T00:13:11;100048.69;;;3.70;92.43
8051;BME280;4068;42.158;24.732;2023-01-30T00:15:38;100054.00;;;3.68;92.39
8051;BME280;4068;42.158;24.732;2023-01-30T00:18:04;100065.34;;;3.69;92.47
8051;BME280;4068;42.158;24.732;2023-01-30T00:20:29;100054.22;;;3.63;92.21
8051;BME280;4068;42.158;24.732;2023-01-30T00:22:55;100061.06;;;3.66;92.48
8051;BME280;4068;42.158;24.732;2023-01-30T00:25:20;100064.72;;;3.63;92.62
8051;BME280;4068;42.158;24.732;2023-01-30T00:27:46;100046.66;;;3.56;93.16
8051;BME280;4068;42.158;24.732;2023-01-30T00:30:11;100035.19;;;3.58;92.06
8051;BME280;4068;42.158;24.732;2023-01-30T00:32:37;100040.50;;;3.57;92.55
8051;BME280;4068;42.158;24.732;2023-01-30T00:35:02;100057.63;;;3.66;92.28
8051;BME280;4068;42.158;24.732;2023-01-30T00:37:28;100053.28;;;3.65;91.82
8051;BME280;4068;42.158;24.732;2023-01-30T00:39:53;100051.53;;;3.65;91.33
8051;BME280;4068;42.158;24.732;2023-01-30T00:42:19;100051.59;;;3.63;92.25
8051;BME280;4068;42.158;24.732;2023-01-30T00:45:02;100021.03;;;3.42;92.38
8051;BME280;4068;42.158;24.732;2023-01-30T00:47:50;100061.81;;;3.49;92.83
8051;BME280;4068;42.158;24.732;2023-01-30T00:50:15;100021.44;;;3.33;93.43
8051;BME280;4068;42.158;24.732;2023-01-30T00:52:41;100056.31;;;3.55;93.75
8051;BME280;4068;42.158;24.732;2023-01-30T00:55:07;100035.56;;;3.49;93.32
8051;BME280;4068;42.158;24.732;2023-01-30T00:57:32;100050.25;;;3.53;93.34
8051;BME280;4068;42.158;24.732;2023-01-30T00:59:58;100041.41;;;3.56;93.75
8051;BME280;4068;42.158;24.732;2023-01-30T01:02:23;100050.78;;;3.61;93.31
8051;BME280;4068;42.158;24.732;2023-01-30T01:04:48;100006.41;;;3.36;93.55
8051;BME280;4068;42.158;24.732;2023-01-30T01:07:14;100049.28;;;3.56;93.97
8051;BME280;4068;42.158;24.732;2023-01-30T01:09:40;100037.16;;;3.53;94.42
8051;BME280;4068;42.158;24.732;2023-01-30T01:12:05;100037.16;;;3.53;94.34
8051;BME280;4068;42.158;24.732;2023-01-30T01:14:31;100021.41;;;3.53;94.12
8051;BME280;4068;42.158;24.732;2023-01-30T01:16:57;100029.56;;;3.47;94.59
8051;BME280;4068;42.158;24.732;2023-01-30T01:19:22;100038.09;;;3.52;94.79
8051;BME280;4068;42.158;24.732;2023-01-30T01:21:48;100031.28;;;3.48;95.06
8051;BME280;4068;42.158;24.732;2023-01-30T01:24:15;100026.03;;;3.48;95.16
8051;BME280;4068;42.158;24.732;2023-01-30T01:26:41;100032.31;;;3.44;95.08
8051;BME280;4068;42.158;24.732;2023-01-30T01:29:11;100022.03;;;3.39;95.52
8051;BME280;4068;42.158;24.732;2023-01-30T01:31:37;100024.72;;;3.38;95.92
8051;BME280;4068;42.158;24.732;2023-01-30T01:34:03;100022.03;;;3.39;95.93
8051;BME280;4068;42.158;24.732;2023-01-30T01:36:28;100024.19;;;3.50;95.33
8051;BME280;4068;42.158;24.732;2023-01-30T01:38:54;100016.72;;;3.41;95.61
8051;BME280;4068;42.158;24.732;2023-01-30T01:41:19;100010.75;;;3.37;95.17
8051;BME280;4068;42.158;24.732;2023-01-30T01:44:05;100019.34;;;3.41;95.18
8051;BME280;4068;42.158;24.732;2023-01-30T01:46:54;100018.53;;;3.39;95.43
8051;BME280;4068;42.158;24.732;2023-01-30T01:49:24;100000.47;;;3.33;95.10
8051;BME280;4068;42.158;24.732;2023-01-30T01:51:52;100016.16;;;3.53;94.25
8051;BME280;4068;42.158;24.732;2023-01-30T01:54:26;100016.53;;;3.45;94.18
8051;BME280;4068;42.158;24.732;2023-01-30T01:56:54;100029.63;;;3.45;93.90
8051;BME280;4068;42.158;24.732;2023-01-30T01:59:26;100024.72;;;3.38;94.45
8051;BME280;4068;42.158;24.732;2023-01-30T02:02:01;100017.63;;;3.40;94.42
8051;BME280;4068;42.158;24.732;2023-01-30T02:04:30;100021.09;;;3.40;93.77
8051;BME280;4068;42.158;24.732;2023-01-30T02:07:17;100016.28;;;3.31;94.36
8051;BME280;4068;42.158;24.732;2023-01-30T02:09:43;100007.91;;;3.42;92.92
8051;BME280;4068;42.158;24.732;2023-01-30T02:12:10;99988.47;;;3.27;92.16
8051;BME280;4068;42.158;24.732;2023-01-30T02:14:37;100008.66;;;3.45;91.50
8051;BME280;4068;42.158;24.732;2023-01-30T02:17:04;99977.19;;;3.25;91.50
8051;BME280;4068;42.158;24.732;2023-01-30T02:28:09;99999.94;;;3.45;90.78
8051;BME280;4068;42.158;24.732;2023-01-30T02:44:20;99966.38;;;3.12;88.87
8051;BME280;4068;42.158;24.732;2023-01-30T02:47:09;99997.63;;;3.37;89.15
8051;BME280;4068;42.158;24.732;2023-01-30T02:49:41;99993.38;;;3.35;90.00
8051;BME280;4068;42.158;24.732;2023-01-30T02:52:10;99996.19;;;3.30;90.00
8051;BME280;4068;42.158;24.732;2023-01-30T02:54:37;99981.53;;;3.26;89.90
8051;BME280;4068;42.158;24.732;2023-01-30T02:57:02;99995.63;;;3.44;89.24
8051;BME280;4068;42.158;24.732;2023-01-30T02:59:38;99995.94;;;3.36;89.45
8051;BME280;4068;42.158;24.732;2023-01-30T03:08:14;99985.50;;;3.35;89.62
8051;BME280;4068;42.158;24.732;2023-01-30T03:10:57;99987.22;;;3.36;89.73
8051;BME280;4068;42.158;24.732;2023-01-30T03:18:43;99986.56;;;3.31;90.70
8051;BME280;4068;42.158;24.732;2023-01-30T03:21:10;99975.38;;;3.27;90.45
8051;BME280;4068;42.158;24.732;2023-01-30T03:23:35;99975.03;;;3.35;89.97
8051;BME280;4068;42.158;24.732;2023-01-30T03:26:03;99965.09;;;3.22;89.20
8051;BME280;4068;42.158;24.732;2023-01-30T03:28:29;99959.84;;;3.22;89.67
8051;BME280;4068;42.158;24.732;2023-01-30T03:30:55;99968.63;;;3.21;89.87
8051;BME280;4068;42.158;24.732;2023-01-30T03:33:20;99945.38;;;3.14;89.09
8051;BME280;4068;42.158;24.732;2023-01-30T03:35:46;99960.91;;;3.18;88.28
8051;BME280;4068;42.158;24.732;2023-01-30T03:38:11;99925.84;;;3.00;88.40
8051;BME280;4068;42.158;24.732;2023-01-30T03:40:38;99968.41;;;3.26;88.28
8051;BME280;4068;42.158;24.732;2023-01-30T03:43:03;99963.97;;;3.28;87.88
8051;BME280;4068;42.158;24.732;2023-01-30T03:45:28;99968.94;;;3.34;87.51
8051;BME280;4068;42.158;24.732;2023-01-30T03:47:54;99963.38;;;3.21;88.15
8051;BME280;4068;42.158;24.732;2023-01-30T03:50:19;99966.66;;;3.26;88.08
8051;BME280;4068;42.158;24.732;2023-01-30T03:52:45;99966.66;;;3.26;88.41
8051;BME280;4068;42.158;24.732;2023-01-30T03:55:10;99959.03;;;3.20;88.20
8051;BME280;4068;42.158;24.732;2023-01-30T03:57:36;99977.91;;;3.28;88.34
8051;BME280;4068;42.158;24.732;2023-01-30T04:00:02;99977.00;;;3.30;90.15
8051;BME280;4068;42.158;24.732;2023-01-30T04:02:28;99973.91;;;3.40;94.48
8051;BME280;4068;42.158;24.732;2023-01-30T04:04:54;99973.31;;;3.54;93.65
8051;BME280;4068;42.158;24.732;2023-01-30T04:07:19;99966.31;;;3.74;97.79
8051;BME280;4068;42.158;24.732;2023-01-30T04:09:45;99963.47;;;3.97;91.93
8051;BME280;4068;42.158;24.732;2023-01-30T04:12:10;99958.66;;;4.07;92.39
8051;BME280;4068;42.158;24.732;2023-01-30T04:14:35;99959.66;;;4.05;89.79
8051;BME280;4068;42.158;24.732;2023-01-30T04:17:01;99965.81;;;4.04;89.34
8051;BME280;4068;42.158;24.732;2023-01-30T04:19:26;99967.16;;;4.12;86.74
8051;BME280;4068;42.158;24.732;2023-01-30T04:21:52;99964.69;;;3.90;84.53
8051;BME280;4068;42.158;24.732;2023-01-30T04:24:17;99942.56;;;3.77;89.95
8051;BME280;4068;42.158;24.732;2023-01-30T04:26:43;99930.63;;;3.89;91.90
8051;BME280;4068;42.158;24.732;2023-01-30T04:29:08;99958.16;;;4.18;87.04
8051;BME280;4068;42.158;24.732;2023-01-30T04:31:33;99930.22;;;3.98;83.33
8051;BME280;4068;42.158;24.732;2023-01-30T04:33:59;99967.00;;;4.15;83.52
8051;BME280;4068;42.158;24.732;2023-01-30T04:36:24;99961.06;;;4.12;84.50
8051;BME280;4068;42.158;24.732;2023-01-30T04:38:50;99961.75;;;4.15;83.77
8051;BME280;4068;42.158;24.732;2023-01-30T04:41:15;99912.06;;;3.93;84.84
8051;BME280;4068;42.158;24.732;2023-01-30T04:43:41;99956.09;;;4.06;81.29
8051;BME280;4068;42.158;24.732;2023-01-30T04:46:06;99953.56;;;3.85;82.19
8051;BME280;4068;42.158;24.732;2023-01-30T04:48:32;99965.25;;;3.78;82.87
8051;BME280;4068;42.158;24.732;2023-01-30T04:50:58;99958.84;;;3.65;83.90
8051;BME280;4068;42.158;24.732;2023-01-30T04:53:23;99949.97;;;3.48;84.20
8051;BME280;4068;42.158;24.732;2023-01-30T04:55:49;99962.16;;;3.49;85.02
8051;BME280;4068;42.158;24.732;2023-01-30T04:58:15;99959.81;;;3.43;85.30
8051;BME280;4068;42.158;24.732;2023-01-30T05:00:41;99932.13;;;3.17;85.78
8051;BME280;4068;42.158;24.732;2023-01-30T05:03:06;99962.19;;;3.28;85.79
8051;BME280;4068;42.158;24.732;2023-01-30T05:05:32;99967.38;;;3.30;86.13
8051;BME280;4068;42.158;24.732;2023-01-30T05:07:58;99958.91;;;3.23;85.54
8051;BME280;4068;42.158;24.732;2023-01-30T05:10:24;99961.88;;;3.16;86.36
8051;BME280;4068;42.158;24.732;2023-01-30T05:12:50;99963.50;;;3.18;85.74
8051;BME280;4068;42.158;24.732;2023-01-30T05:15:15;99961.53;;;3.23;85.72
8051;BME280;4068;42.158;24.732;2023-01-30T05:17:40;99937.19;;;3.01;85.23
8051;BME280;4068;42.158;24.732;2023-01-30T05:20:08;99975.72;;;3.19;85.85
8051;BME280;4068;42.158;24.732;2023-01-30T05:22:34;99963.59;;;3.17;85.70
8051;BME280;4068;42.158;24.732;2023-01-30T05:24:59;99969.81;;;3.14;85.76
8051;BME280;4068;42.158;24.732;2023-01-30T05:27:25;99965.22;;;2.99;86.65
8051;BME280;4068;42.158;24.732;2023-01-30T05:29:50;99942.94;;;2.88;86.47
8051;BME280;4068;42.158;24.732;2023-01-30T05:32:17;99965.16;;;3.00;86.34
8051;BME280;4068;42.158;24.732;2023-01-30T05:34:43;99959.91;;;3.00;86.37
8051;BME280;4068;42.158;24.732;2023-01-30T05:37:10;99965.00;;;3.03;86.89
8051;BME280;4068;42.158;24.732;2023-01-30T05:39:36;99964.16;;;3.03;86.47
8051;BME280;4068;42.158;24.732;2023-01-30T05:42:02;99970.66;;;2.94;86.33
8051;BME280;4068;42.158;24.732;2023-01-30T05:44:28;99956.44;;;3.00;86.23
8051;BME280;4068;42.158;24.732;2023-01-30T05:46:53;99973.88;;;3.01;86.42
8051;BME280;4068;42.158;24.732;2023-01-30T05:49:19;99961.69;;;3.00;87.42
8051;BME280;4068;42.158;24.732;2023-01-30T05:51:44;99971.00;;;3.07;87.10
8051;BME280;4068;42.158;24.732;2023-01-30T05:54:10;99959.84;;;3.02;86.52
8051;BME280;4068;42.158;24.732;2023-01-30T05:56:35;99962.13;;;2.89;87.68
8051;BME280;4068;42.158;24.732;2023-01-30T05:59:01;99967.94;;;2.75;89.89
8051;BME280;4068;42.158;24.732;2023-01-30T06:01:27;99951.56;;;2.70;88.14
8051;BME280;4068;42.158;24.732;2023-01-30T06:03:54;99949.22;;;2.84;88.13
8051;BME280;4068;42.158;24.732;2023-01-30T06:06:20;99970.13;;;3.06;87.04
8051;BME280;4068;42.158;24.732;2023-01-30T06:08:46;99975.34;;;3.06;86.93
8051;BME280;4068;42.158;24.732;2023-01-30T06:11:14;99970.84;;;3.10;86.32
8051;BME280;4068;42.158;24.732;2023-01-30T06:13:41;99975.03;;;3.14;86.22
8051;BME280;4068;42.158;24.732;2023-01-30T06:16:08;99975.97;;;3.13;86.29
8051;BME280;4068;42.158;24.732;2023-01-30T06:18:34;99960.22;;;3.13;85.55
8051;BME280;4068;42.158;24.732;2023-01-30T06:21:00;99980.75;;;3.24;85.20
8051;BME280;4068;42.158;24.732;2023-01-30T06:23:26;99973.88;;;3.21;84.63
8051;BME280;4068;42.158;24.732;2023-01-30T06:25:52;99971.94;;;3.25;83.90
8051;BME280;4068;42.158;24.732;2023-01-30T06:28:18;99939.41;;;3.10;83.50
8051;BME280;4068;42.158;24.732;2023-01-30T06:30:44;99975.22;;;3.30;83.50
8051;BME280;4068;42.158;24.732;2023-01-30T06:33:09;99979.78;;;3.26;84.62
8051;BME280;4068;42.158;24.732;2023-01-30T06:35:39;99983.69;;;3.37;84.69
8051;BME280;4068;42.158;24.732;2023-01-30T06:38:05;99962.34;;;3.25;84.43
8051;BME280;4068;42.158;24.732;2023-01-30T06:40:31;99966.91;;;3.41;83.90
8051;BME280;4068;42.158;24.732;2023-01-30T06:42:56;99948.16;;;3.30;82.89
8051;BME280;4068;42.158;24.732;2023-01-30T06:45:21;99989.09;;;3.53;82.34
8051;BME280;4068;42.158;24.732;2023-01-30T06:47:51;99985.50;;;3.55;82.51
8051;BME280;4068;42.158;24.732;2023-01-30T06:50:19;99977.28;;;3.63;82.29
8051;BME280;4068;42.158;24.732;2023-01-30T06:52:47;99984.44;;;3.59;82.97
8051;BME280;4068;42.158;24.732;2023-01-30T06:55:15;99983.41;;;3.63;82.77
8051;BME280;4068;42.158;24.732;2023-01-30T06:57:42;99942.50;;;3.39;82.16
8051;BME280;4068;42.158;24.732;2023-01-30T07:00:18;99976.06;;;3.51;82.64
8051;BME280;4068;42.158;24.732;2023-01-30T07:02:45;99987.31;;;3.53;83.21
8051;BME280;4068;42.158;24.732;2023-01-30T07:05:11;99991.06;;;3.68;82.56
8051;BME280;4068;42.158;24.732;2023-01-30T07:07:37;99984.03;;;3.69;82.19
8051;BME280;4068;42.158;24.732;2023-01-30T07:10:05;99989.63;;;3.80;81.91
8051;BME280;4068;42.158;24.732;2023-01-30T07:12:30;99991.63;;;3.75;81.82
8051;BME280;4068;42.158;24.732;2023-01-30T07:14:56;99989.50;;;3.83;81.90
8051;BME280;4068;42.158;24.732;2023-01-30T07:17:22;99993.44;;;3.93;80.81
8051;BME280;4068;42.158;24.732;2023-01-30T07:19:48;99971.50;;;3.75;81.06
8051;BME280;4068;42.158;24.732;2023-01-30T07:22:13;99965.34;;;3.76;81.27
8051;BME280;4068;42.158;24.732;2023-01-30T07:24:39;99990.84;;;3.92;81.33
8051;BME280;4068;42.158;24.732;2023-01-30T07:27:07;99996.25;;;3.89;80.21
8051;BME280;4068;42.158;24.732;2023-01-30T07:29:34;99994.84;;;4.01;81.04
8051;BME280;4068;42.158;24.732;2023-01-30T07:32:00;99992.00;;;4.05;80.62
8051;BME280;4068;42.158;24.732;2023-01-30T07:34:26;99985.19;;;4.01;81.23
8051;BME280;4068;42.158;24.732;2023-01-30T07:36:52;99993.19;;;4.17;79.97
8051;BME280;4068;42.158;24.732;2023-01-30T07:39:17;99998.53;;;4.15;80.09
8051;BME280;4068;42.158;24.732;2023-01-30T07:41:42;99985.13;;;4.03;79.79
8051;BME280;4068;42.158;24.732;2023-01-30T07:44:08;99997.59;;;4.17;79.77
8051;BME280;4068;42.158;24.732;2023-01-30T07:46:33;99984.19;;;4.04;79.85
8051;BME280;4068;42.158;24.732;2023-01-30T07:49:00;99998.53;;;4.15;79.41
8051;BME280;4068;42.158;24.732;2023-01-30T07:51:26;99973.25;;;4.13;79.07
8051;BME280;4068;42.158;24.732;2023-01-30T07:53:51;99979.06;;;4.20;79.32
8051;BME280;4068;42.158;24.732;2023-01-30T07:56:17;99981.22;;;4.30;78.76
8051;BME280;4068;42.158;24.732;2023-01-30T07:58:45;99978.00;;;4.24;78.16
8051;BME280;4068;42.158;24.732;2023-01-30T08:01:10;99942.06;;;4.07;78.42
8051;BME280;4068;42.158;24.732;2023-01-30T08:03:36;99973.53;;;4.26;79.01
8051;BME280;4068;42.158;24.732;2023-01-30T08:06:01;99982.47;;;4.41;77.88
8051;BME280;4068;42.158;24.732;2023-01-30T08:08:27;99976.91;;;4.47;78.05
8051;BME280;4068;42.158;24.732;2023-01-30T08:10:52;99985.97;;;4.59;76.94
8051;BME280;4068;42.158;24.732;2023-01-30T08:13:18;99985.59;;;4.49;76.67
8051;BME280;4068;42.158;24.732;2023-01-30T08:15:43;99977.75;;;4.47;76.04
8051;BME280;4068;42.158;24.732;2023-01-30T08:18:09;99983.28;;;4.60;75.50
8051;BME280;4068;42.158;24.732;2023-01-30T08:20:35;99974.78;;;4.73;75.89
8051;BME280;4068;42.158;24.732;2023-01-30T08:23:00;99970.63;;;4.86;75.19
8051;BME280;4068;42.158;24.732;2023-01-30T08:25:27;99974.88;;;4.89;73.51
8051;BME280;4068;42.158;24.732;2023-01-30T08:27:53;99979.97;;;5.09;73.22
8051;BME280;4068;42.158;24.732;2023-01-30T08:30:19;99969.59;;;5.24;72.92
8051;BME280;4068;42.158;24.732;2023-01-30T08:32:44;99936.91;;;5.12;72.80
8051;BME280;4068;42.158;24.732;2023-01-30T08:35:10;99980.97;;;5.24;71.65
8051;BME280;4068;42.158;24.732;2023-01-30T08:37:37;99972.69;;;5.14;72.63
8051;BME280;4068;42.158;24.732;2023-01-30T08:40:03;99970.94;;;5.15;72.31
8051;BME280;4068;42.158;24.732;2023-01-30T08:42:28;99955.44;;;5.09;72.61
8051;BME280;4068;42.158;24.732;2023-01-30T08:44:53;99959.84;;;5.26;73.32
8051;BME280;4068;42.158;24.732;2023-01-30T08:47:19;99959.38;;;5.35;72.45
8051;BME280;4068;42.158;24.732;2023-01-30T08:49:46;99939.06;;;5.21;71.68
8051;BME280;4068;42.158;24.732;2023-01-30T08:52:11;99958.03;;;5.44;72.32
8051;BME280;4068;42.158;24.732;2023-01-30T08:54:37;99941.25;;;5.46;71.34
8051;BME280;4068;42.158;24.732;2023-01-30T08:57:02;99967.69;;;5.61;71.19
8051;BME280;4068;42.158;24.732;2023-01-30T08:59:28;99951.53;;;5.51;70.48
8051;BME280;4068;42.158;24.732;2023-01-30T09:01:53;99960.13;;;5.55;71.00
8051;BME280;4068;42.158;24.732;2023-01-30T09:04:18;99947.06;;;5.53;70.44
8051;BME280;4068;42.158;24.732;2023-01-30T09:06:44;99956.53;;;5.56;71.00
8051;BME280;4068;42.158;24.732;2023-01-30T09:09:09;99955.88;;;5.52;70.04
8051;BME280;4068;42.158;24.732;2023-01-30T09:11:35;99916.31;;;5.20;71.63
8051;BME280;4068;42.158;24.732;2023-01-30T09:14:00;99914.03;;;5.47;70.13
8051;BME280;4068;42.158;24.732;2023-01-30T09:16:25;99951.81;;;5.78;68.38
8051;BME280;4068;42.158;24.732;2023-01-30T09:18:51;99942.75;;;5.84;68.75
8051;BME280;4068;42.158;24.732;2023-01-30T09:21:16;99945.72;;;5.94;68.64
8051;BME280;4068;42.158;24.732;2023-01-30T09:23:42;99939.31;;;5.99;67.78
8051;BME280;4068;42.158;24.732;2023-01-30T09:26:07;99943.56;;;6.02;68.20
8051;BME280;4068;42.158;24.732;2023-01-30T09:28:34;99916.34;;;5.85;67.84
8051;BME280;4068;42.158;24.732;2023-01-30T09:31:02;99932.03;;;5.87;68.34
8051;BME280;4068;42.158;24.732;2023-01-30T09:33:28;99921.81;;;5.98;67.81
8051;BME280;4068;42.158;24.732;2023-01-30T09:35:54;99911.69;;;5.91;68.06
8051;BME280;4068;42.158;24.732;2023-01-30T09:38:20;99922.06;;;6.10;66.85
8051;BME280;4068;42.158;24.732;2023-01-30T09:54:50;99893.88;;;5.96;68.93
8051;BME280;4068;42.158;24.732;2023-01-30T09:57:21;99885.19;;;5.94;69.46
8051;BME280;4068;42.158;24.732;2023-01-30T10:02:48;99851.19;;;5.41;71.66
8051;BME280;4068;42.158;24.732;2023-01-30T10:05:14;99871.09;;;5.79;70.17
8051;BME280;4068;42.158;24.732;2023-01-30T10:27:15;99810.16;;;6.17;67.56
8051;BME280;4068;42.158;24.732;2023-01-30T10:29:44;99815.72;;;6.12;68.18
8051;BME280;4068;42.158;24.732;2023-01-30T10:32:16;99776.84;;;6.01;67.28
8051;BME280;4068;42.158;24.732;2023-01-30T10:34:48;99798.41;;;6.08;68.73
8051;BME280;4068;42.158;24.732;2023-01-30T10:43:26;99780.16;;;6.05;68.84
8051;BME280;4068;42.158;24.732;2023-01-30T10:49:04;99776.75;;;6.33;68.06
8051;BME280;4068;42.158;24.732;2023-01-30T10:57:22;99742.69;;;6.30;67.82
8051;BME280;4068;42.158;24.732;2023-01-30T10:59:57;99745.94;;;6.64;67.10
8051;BME280;4068;42.158;24.732;2023-01-30T11:05:15;99731.16;;;6.62;65.61
8051;BME280;4068;42.158;24.732;2023-01-30T11:07:45;99714.41;;;6.63;65.04
8051;BME280;4068;42.158;24.732;2023-01-30T11:10:15;99679.56;;;6.29;65.37
8051;BME280;4068;42.158;24.732;2023-01-30T11:12:41;99727.22;;;6.24;66.32
8051;BME280;4068;42.158;24.732;2023-01-30T11:15:07;99704.22;;;6.28;66.90
8051;BME280;4068;42.158;24.732;2023-01-30T11:17:39;99703.47;;;6.54;66.84
8051;BME280;4068;42.158;24.732;2023-01-30T11:22:35;99698.47;;;6.93;65.34
8051;BME280;4068;42.158;24.732;2023-01-30T11:25:14;99671.16;;;6.80;64.93
8051;BME280;4068;42.158;24.732;2023-01-30T11:27:42;99685.88;;;6.55;65.19
8051;BME280;4068;42.158;24.732;2023-01-30T11:30:17;99678.22;;;6.79;65.50
8051;BME280;4068;42.158;24.732;2023-01-30T11:32:47;99679.38;;;6.46;66.00
8051;BME280;4068;42.158;24.732;2023-01-30T11:37:42;99675.50;;;6.81;66.19
8051;BME280;4068;42.158;24.732;2023-01-30T11:42:44;99658.44;;;6.86;62.98
8051;BME280;4068;42.158;24.732;2023-01-30T11:45:11;99657.72;;;6.84;59.11
8051;BME280;4068;42.158;24.732;2023-01-30T11:47:38;99645.56;;;6.82;59.15
8051;BME280;4068;42.158;24.732;2023-01-30T11:50:14;99647.13;;;6.99;57.75
8051;BME280;4068;42.158;24.732;2023-01-30T11:52:42;99638.13;;;6.88;57.23
8051;BME280;4068;42.158;24.732;2023-01-30T11:55:12;99636.38;;;7.02;56.58
8051;BME280;4068;42.158;24.732;2023-01-30T11:57:50;99635.72;;;6.98;55.55
8051;BME280;4068;42.158;24.732;2023-01-30T12:00:19;99636.88;;;6.94;55.76
8051;BME280;4068;42.158;24.732;2023-01-30T12:02:46;99642.38;;;6.62;55.75
8051;BME280;4068;42.158;24.732;2023-01-30T12:05:32;99623.91;;;6.77;55.71
8051;BME280;4068;42.158;24.732;2023-01-30T12:10:48;99604.66;;;6.62;55.16
8051;BME280;4068;42.158;24.732;2023-01-30T12:13:37;99605.38;;;6.64;54.46
8051;BME280;4068;42.158;24.732;2023-01-30T12:16:30;99598.53;;;6.47;54.96
8051;BME280;4068;42.158;24.732;2023-01-30T12:22:19;99600.16;;;6.20;55.18
8051;BME280;4068;42.158;24.732;2023-01-30T12:24:56;99597.81;;;6.30;55.80
8051;BME280;4068;42.158;24.732;2023-01-30T12:32:56;99565.00;;;6.21;56.24
8051;BME280;4068;42.158;24.732;2023-01-30T12:35:30;99573.16;;;6.31;56.58
8051;BME280;4068;42.158;24.732;2023-01-30T12:40:43;99583.13;;;6.41;56.13
8051;BME280;4068;42.158;24.732;2023-01-30T12:43:30;99577.75;;;6.42;55.83
8051;BME280;4068;42.158;24.732;2023-01-30T12:48:47;99567.91;;;6.17;56.72
8051;BME280;4068;42.158;24.732;2023-01-30T12:57:20;99546.84;;;6.02;55.78
8051;BME280;4068;42.158;24.732;2023-01-30T13:05:19;99542.53;;;6.16;56.20
8051;BME280;4068;42.158;24.732;2023-01-30T13:10:51;99538.56;;;6.23;56.97
8051;BME280;4068;42.158;24.732;2023-01-30T13:16:33;99537.81;;;6.21;57.12
8051;BME280;4068;42.158;24.732;2023-01-30T13:19:04;99537.53;;;6.26;58.04
8051;BME280;4068;42.158;24.732;2023-01-30T13:26:26;99532.00;;;6.01;57.07
8051;BME280;4068;42.158;24.732;2023-01-30T13:28:58;99534.31;;;5.92;57.25
8051;BME280;4068;42.158;24.732;2023-01-30T13:31:26;99522.44;;;5.70;57.54
8051;BME280;4068;42.158;24.732;2023-01-30T13:34:11;99525.19;;;5.68;58.25
8051;BME280;4068;42.158;24.732;2023-01-30T13:36:46;99506.03;;;5.66;58.11
8051;BME280;4068;42.158;24.732;2023-01-30T13:39:23;99516.44;;;5.82;58.20
8051;BME280;4068;42.158;24.732;2023-01-30T13:41:55;99516.56;;;5.81;58.51
8051;BME280;4068;42.158;24.732;2023-01-30T13:44:30;99511.28;;;5.81;58.11
8051;BME280;4068;42.158;24.732;2023-01-30T13:47:07;99500.47;;;5.71;57.54
8051;BME280;4068;42.158;24.732;2023-01-30T13:49:52;99520.41;;;5.75;58.16
8051;BME280;4068;42.158;24.732;2023-01-30T13:52:35;99514.09;;;5.63;58.02
8051;BME280;4068;42.158;24.732;2023-01-30T13:55:45;99511.19;;;5.53;57.97
8051;BME280;4068;42.158;24.732;2023-01-30T13:58:24;99506.41;;;5.46;58.79
8051;BME280;4068;42.158;24.732;2023-01-30T14:00:55;99509.16;;;5.28;59.45
8051;BME280;4068;42.158;24.732;2023-01-30T14:03:29;99484.22;;;5.05;60.14
8051;BME280;4068;42.158;24.732;2023-01-30T14:11:38;99504.44;;;4.89;61.90
8051;BME280;4068;42.158;24.732;2023-01-30T14:14:26;99514.09;;;4.58;62.76
8051;BME280;4068;42.158;24.732;2023-01-30T14:17:06;99509.59;;;4.44;63.33
8051;BME280;4068;42.158;24.732;2023-01-30T14:19:37;99512.47;;;4.39;64.45
8051;BME280;4068;42.158;24.732;2023-01-30T14:22:17;99515.25;;;4.20;65.33
8051;BME280;4068;42.158;24.732;2023-01-30T14:24:44;99508.06;;;4.08;66.69
8051;BME280;4068;42.158;24.732;2023-01-30T14:27:27;99504.22;;;3.97;68.12
8051;BME280;4068;42.158;24.732;2023-01-30T14:29:56;99502.75;;;3.76;69.51
8051;BME280;4068;42.158;24.732;2023-01-30T14:40:00;99495.41;;;3.49;72.76
8051;BME280;4068;42.158;24.732;2023-01-30T14:42:28;99498.88;;;3.50;72.88
8051;BME280;4068;42.158;24.732;2023-01-30T14:44:59;99478.16;;;3.45;72.69
8051;BME280;4068;42.158;24.732;2023-01-30T14:47:25;99494.09;;;3.58;72.72
8051;BME280;4068;42.158;24.732;2023-01-30T14:49:52;99493.00;;;3.62;72.75
8051;BME280;4068;42.158;24.732;2023-01-30T14:52:39;99483.28;;;3.64;72.83
8051;BME280;4068;42.158;24.732;2023-01-30T14:55:18;99456.22;;;3.46;73.03
8051;BME280;4068;42.158;24.732;2023-01-30T14:57:52;99488.69;;;3.61;73.14
8051;BME280;4068;42.158;24.732;2023-01-30T15:00:23;99491.38;;;3.59;73.06
8051;BME280;4068;42.158;24.732;2023-01-30T15:02:52;99490.44;;;3.60;73.59
8051;BME280;4068;42.158;24.732;2023-01-30T15:05:42;99486.16;;;3.59;73.99
8051;BME280;4068;42.158;24.732;2023-01-30T15:08:15;99449.69;;;3.37;73.96
8051;BME280;4068;42.158;24.732;2023-01-30T15:22:39;99481.06;;;3.39;74.13
8051;BME280;4068;42.158;24.732;2023-01-30T15:25:18;99480.41;;;3.18;74.52
8051;BME280;4068;42.158;24.732;2023-01-30T15:27:56;99478.28;;;2.91;75.97
8051;BME280;4068;42.158;24.732;2023-01-30T15:33:18;99477.41;;;2.73;77.27
8051;BME280;4068;42.158;24.732;2023-01-30T15:35:44;99427.31;;;2.44;77.51
8051;BME280;4068;42.158;24.732;2023-01-30T15:38:26;99479.63;;;2.63;78.42
8051;BME280;4068;42.158;24.732;2023-01-30T15:40:53;99480.34;;;2.48;79.06
8051;BME280;4068;42.158;24.732;2023-01-30T15:46:17;99479.47;;;2.30;80.37
8051;BME280;4068;42.158;24.732;2023-01-30T15:49:12;99479.06;;;2.20;80.65
8051;BME280;4068;42.158;24.732;2023-01-30T15:51:42;99457.06;;;1.86;81.85
8051;BME280;4068;42.158;24.732;2023-01-30T15:54:13;99484.94;;;2.06;82.07
8051;BME280;4068;42.158;24.732;2023-01-30T15:56:40;99484.16;;;2.04;81.74
8051;BME280;4068;42.158;24.732;2023-01-30T15:59:25;99467.41;;;1.89;82.53
8051;BME280;4068;42.158;24.732;2023-01-30T16:02:04;99478.28;;;1.99;82.24
8051;BME280;4068;42.158;24.732;2023-01-30T16:04:31;99477.84;;;1.89;82.70
8051;BME280;4068;42.158;24.732;2023-01-30T16:06:56;99485.91;;;1.84;83.09
8051;BME280;4068;42.158;24.732;2023-01-30T16:09:24;99460.38;;;1.70;83.56
8051;BME280;4068;42.158;24.732;2023-01-30T16:11:50;99473.81;;;1.82;83.50
8051;BME280;4068;42.158;24.732;2023-01-30T16:14:18;99478.91;;;1.85;83.21